Time;durP1;ratioP1;P1;durP2;ratioP2;P2;SDS_P1;SDS_P2;PMS_P1;PMS_P2;Temp;Humidity;BMP_temperature;BMP_pressure;BME280_temperature;BME280_humidity;BME280_pressure;Samples;Min_cycle;Max_cycle;Signal;HPM_P1;HPM_P2
2023/04/08 00:00:09;;;;;;;10.18;7.35;;;;;;;9.28;79.47;99824.06;346558;28;1078;-70
2023/04/08 00:00:21;;;;;;;9.68;7.30;;;;;;;9.21;79.81;99823.34;346308;28;1291;-70
2023/04/08 00:00:33;;;;;;;9.20;7.35;;;;;;;9.19;79.65;99826.00;345949;28;1312;-70
2023/04/08 00:00:45;;;;;;;9.68;7.28;;;;;;;9.18;79.84;99823.44;346205;28;1074;-70
2023/04/08 00:00:57;;;;;;;9.35;7.15;;;;;;;9.22;79.71;99824.22;346221;28;1503;-70
2023/04/08 00:01:09;;;;;;;9.18;6.90;;;;;;;9.25;79.59;99824.13;346794;28;1038;-70
2023/04/08 00:01:21;;;;;;;9.63;7.00;;;;;;;9.22;79.98;99824.22;345733;28;2466;-70
2023/04/08 00:01:33;;;;;;;10.32;7.18;;;;;;;9.18;79.81;99826.88;345131;28;2608;-70
2023/04/08 00:01:46;;;;;;;9.73;6.90;;;;;;;9.15;79.72;99823.47;346104;28;1682;-70
2023/04/08 00:01:58;;;;;;;10.18;6.95;;;;;;;9.14;79.80;99827.81;347500;28;1206;-70
2023/04/08 00:02:10;;;;;;;11.02;7.03;;;;;;;9.13;79.94;99825.25;346709;28;1086;-70
2023/04/08 00:02:22;;;;;;;10.88;7.22;;;;;;;9.11;79.82;99825.28;345285;28;1066;-70
2023/04/08 00:02:35;;;;;;;9.23;7.00;;;;;;;9.11;79.85;99827.03;344858;28;1074;-70
2023/04/08 00:02:47;;;;;;;9.45;7.10;;;;;;;9.07;79.96;99826.25;346033;28;1471;-70
2023/04/08 00:03:00;;;;;;;9.70;7.15;;;;;;;9.08;79.77;99822.78;347465;28;1241;-70
2023/04/08 00:03:13;;;;;;;8.82;7.03;;;;;;;9.08;79.84;99825.38;345900;28;1257;-70
2023/04/08 00:03:25;;;;;;;8.50;7.00;;;;;;;9.10;79.68;99820.16;344790;28;1087;-70
2023/04/08 00:03:38;;;;;;;8.75;7.00;;;;;;;9.11;79.76;99827.88;344876;28;1336;-70
2023/04/08 00:03:50;;;;;;;9.10;6.75;;;;;;;9.11;79.64;99827.88;345557;28;1326;-70
2023/04/08 00:04:03;;;;;;;10.07;6.82;;;;;;;9.12;79.71;99824.41;346256;28;1264;-70
2023/04/08 00:04:15;;;;;;;9.90;7.00;;;;;;;9.10;79.56;99821.00;346412;28;1072;-70
2023/04/08 00:04:27;;;;;;;9.98;7.05;;;;;;;9.12;79.63;99826.16;346248;28;1229;-70
2023/04/08 00:04:40;;;;;;;9.73;6.85;;;;;;;9.11;79.59;99825.28;346046;28;1042;-70
2023/04/08 00:04:52;;;;;;;9.80;6.80;;;;;;;9.13;79.69;99831.28;346695;28;1701;-70
2023/04/08 00:05:05;;;;;;;9.23;6.78;;;;;;;9.14;79.46;99826.97;346663;28;1015;-70
2023/04/08 00:05:17;;;;;;;8.50;6.80;;;;;;;9.09;79.48;99827.06;346589;28;1117;-70
2023/04/08 00:05:29;;;;;;;8.50;6.80;;;;;;;9.10;79.48;99825.34;346129;28;1065;-70
2023/04/08 00:05:41;;;;;;;9.57;7.07;;;;;;;9.10;79.39;99825.34;346292;28;1157;-70
2023/04/08 00:05:53;;;;;;;9.90;7.28;;;;;;;9.10;79.56;99820.16;346596;28;1027;-70
2023/04/08 00:06:05;;;;;;;11.48;7.47;;;;;;;9.05;79.89;99828.03;346408;28;1274;-70
2023/04/08 00:06:17;;;;;;;10.95;7.35;;;;;;;9.04;79.62;99825.50;346367;28;1083;-70
2023/04/08 00:06:30;;;;;;;10.65;6.97;;;;;;;9.05;79.85;99822.84;345138;28;1296;-70
2023/04/08 00:06:47;;;;;;;9.82;6.78;;;;;;;9.05;79.79;99822.00;345783;28;1176;-69
2023/04/08 00:06:59;;;;;;;10.10;6.72;;;;;;;9.03;79.62;99832.41;347643;28;1195;-70
2023/04/08 00:07:12;;;;;;;8.90;6.82;;;;;;;9.00;79.75;99827.31;345854;28;1671;-71
2023/04/08 00:07:24;;;;;;;7.65;6.53;;;;;;;9.01;79.51;99826.41;346298;28;1054;-70
2023/04/08 00:07:36;;;;;;;8.02;6.63;;;;;;;8.99;79.80;99821.28;346122;28;1170;-70
2023/04/08 00:07:48;;;;;;;8.85;6.88;;;;;;;9.01;79.85;99831.59;346085;28;1351;-70
2023/04/08 00:08:00;;;;;;;8.48;6.65;;;;;;;9.03;79.69;99829.81;346313;28;1245;-70
2023/04/08 00:08:12;;;;;;;8.38;6.47;;;;;;;9.05;79.86;99825.44;346344;28;1070;-70
2023/04/08 00:08:24;;;;;;;9.10;6.75;;;;;;;9.05;79.54;99824.59;346282;28;1106;-70
2023/04/08 00:08:36;;;;;;;10.05;7.05;;;;;;;9.02;79.97;99822.94;346292;28;1013;-70
2023/04/08 00:08:48;;;;;;;10.48;7.00;;;;;;;9.03;79.84;99829.81;346223;28;2011;-70
2023/04/08 00:09:02;;;;;;;10.45;7.10;;;;;;;9.05;79.76;99828.03;346276;28;1022;-70
2023/04/08 00:09:14;;;;;;;9.68;7.18;;;;;;;9.03;79.77;99824.63;345930;28;1120;-70
2023/04/08 00:09:26;;;;;;;10.10;7.15;;;;;;;9.03;79.76;99827.22;346411;28;1075;-70
2023/04/08 00:09:38;;;;;;;10.00;7.30;;;;;;;9.02;79.87;99822.94;346169;28;1169;-70
2023/04/08 00:09:50;;;;;;;10.23;7.60;;;;;;;9.01;79.97;99826.41;346170;28;1288;-70
2023/04/08 00:10:02;;;;;;;9.52;7.15;;;;;;;8.99;79.85;99828.19;346752;28;1164;-70
2023/04/08 00:10:15;;;;;;;9.43;7.05;;;;;;;9.00;79.63;99829.91;346606;28;1165;-70
2023/04/08 00:10:27;;;;;;;9.00;6.80;;;;;;;9.01;79.81;99829.00;346359;28;1039;-70
2023/04/08 00:10:39;;;;;;;9.05;6.88;;;;;;;9.02;79.66;99833.31;346258;28;1097;-69
2023/04/08 00:10:51;;;;;;;9.35;6.95;;;;;;;9.04;79.73;99831.53;346360;28;1070;-69
2023/04/08 00:11:03;;;;;;;9.45;7.10;;;;;;;9.04;79.77;99836.72;346425;28;1063;-70
2023/04/08 00:11:15;;;;;;;9.00;6.95;;;;;;;9.02;79.85;99833.31;346355;28;1241;-70
2023/04/08 00:11:27;;;;;;;8.90;6.93;;;;;;;9.03;79.73;99828.97;346252;28;1165;-70
2023/04/08 00:11:39;;;;;;;9.15;6.90;;;;;;;8.99;79.73;99829.06;346659;28;1334;-69
2023/04/08 00:12:12;;;;;;;8.95;6.80;;;;;;;9.02;79.74;99833.31;346521;28;1032;-70
2023/04/08 00:12:24;;;;;;;9.85;6.72;;;;;;;9.03;79.63;99829.81;344886;28;1031;-70
2023/04/08 00:12:36;;;;;;;9.65;6.82;;;;;;;9.04;79.65;99831.53;344887;28;1114;-70
2023/04/08 00:12:48;;;;;;;9.23;6.88;;;;;;;9.04;79.56;99831.53;344763;28;1035;-70
2023/04/08 00:13:00;;;;;;;8.88;6.90;;;;;;;9.05;79.62;99830.63;344624;28;1194;-70
2023/04/08 00:13:12;;;;;;;8.60;6.70;;;;;;;9.07;79.41;99830.59;345353;28;1009;-70
2023/04/08 00:13:25;;;;;;;8.53;6.87;;;;;;;9.07;79.15;99831.44;344759;28;1377;-70
2023/04/08 00:13:37;;;;;;;9.40;7.28;;;;;;;9.07;79.50;99830.59;344904;28;1183;-70
2023/04/08 00:13:49;;;;;;;9.32;7.32;;;;;;;9.09;79.48;99829.66;344772;28;1111;-70
2023/04/08 00:14:02;;;;;;;9.57;7.25;;;;;;;9.09;79.43;99834.84;345970;28;1302;-70
2023/04/08 00:14:14;;;;;;;9.32;7.10;;;;;;;9.08;79.30;99833.16;346388;28;1044;-70
2023/04/08 00:14:26;;;;;;;9.82;7.15;;;;;;;9.09;79.29;99831.41;346594;28;1066;-70
2023/04/08 00:14:40;;;;;;;10.02;7.40;;;;;;;9.07;79.37;99834.03;346225;28;1305;-70
2023/04/08 00:14:52;;;;;;;9.27;7.07;;;;;;;9.07;79.16;99831.44;346320;28;1102;-70
2023/04/08 00:15:04;;;;;;;8.80;6.90;;;;;;;9.07;79.09;99834.03;346619;28;1254;-70
2023/04/08 00:15:16;;;;;;;9.63;6.90;;;;;;;9.06;79.10;99834.94;346527;28;1287;-70
2023/04/08 00:15:28;;;;;;;10.23;7.20;;;;;;;9.05;79.42;99828.03;346327;28;1315;-70
2023/04/08 00:15:41;;;;;;;10.52;7.20;;;;;;;9.04;79.35;99838.47;346582;28;930;-70
2023/04/08 00:15:53;;;;;;;10.13;7.30;;;;;;;9.03;79.33;99835.00;346287;28;1058;-70
2023/04/08 00:16:05;;;;;;;9.88;6.97;;;;;;;9.05;79.41;99830.63;346023;28;1083;-70
2023/04/08 00:16:17;;;;;;;8.95;6.75;;;;;;;9.06;79.25;99834.09;345385;28;2121;-70
2023/04/08 00:16:29;;;;;;;8.63;6.82;;;;;;;9.03;79.56;99840.19;345033;28;2006;-70
2023/04/08 00:16:41;;;;;;;9.27;7.22;;;;;;;9.06;79.29;99836.69;346513;28;1086;-70
2023/04/08 00:16:53;;;;;;;9.70;7.13;;;;;;;9.06;79.37;99837.53;346042;28;1485;-70
2023/04/08 00:17:06;;;;;;;9.43;6.60;;;;;;;9.07;79.22;99839.22;346235;28;1042;-70
2023/04/08 00:17:18;;;;;;;9.30;6.82;;;;;;;9.06;79.20;99836.69;346203;28;1017;-70
2023/04/08 00:17:30;;;;;;;11.02;7.13;;;;;;;9.06;79.23;99832.34;345979;28;1059;-70
2023/04/08 00:17:42;;;;;;;12.90;7.33;;;;;;;9.07;78.90;99843.56;346007;28;1141;-70
2023/04/08 00:17:54;;;;;;;10.75;6.93;;;;;;;9.07;79.07;99841.81;346601;28;1119;-70
2023/04/08 00:18:07;;;;;;;9.88;6.55;;;;;;;9.08;79.19;99837.50;346320;28;1585;-70
2023/04/08 00:18:19;;;;;;;8.85;6.50;;;;;;;9.05;79.22;99835.81;346475;28;1284;-70
2023/04/08 00:18:31;;;;;;;9.05;7.10;;;;;;;9.07;79.02;99839.22;346744;28;1209;-70
2023/04/08 00:18:43;;;;;;;8.88;6.82;;;;;;;9.07;79.00;99834.03;346527;28;1191;-69
2023/04/08 00:18:55;;;;;;;9.27;6.82;;;;;;;9.05;78.83;99830.63;345350;28;1471;-70
2023/04/08 00:19:07;;;;;;;9.00;6.80;;;;;;;9.06;79.15;99834.94;346066;28;1129;-70
2023/04/08 00:19:19;;;;;;;9.00;6.82;;;;;;;9.07;78.80;99831.44;346218;28;1092;-70
2023/04/08 00:19:32;;;;;;;9.30;7.15;;;;;;;9.07;79.09;99836.63;346438;28;1886;-70
2023/04/08 00:19:46;;;;;;;9.63;7.40;;;;;;;9.08;79.01;99838.34;346413;28;1194;-70
2023/04/08 00:19:59;;;;;;;8.85;6.97;;;;;;;9.07;78.98;99834.03;346906;28;747;-70
2023/04/08 00:20:11;;;;;;;8.35;6.45;;;;;;;9.08;78.90;99832.31;346558;28;1086;-70
2023/04/08 00:20:23;;;;;;;8.30;6.30;;;;;;;9.09;78.74;99834.00;346573;28;1032;-70
2023/04/08 00:20:35;;;;;;;8.73;6.50;;;;;;;9.09;78.71;99829.66;346469;28;1240;-70
2023/04/08 00:20:47;;;;;;;8.93;6.88;;;;;;;9.10;78.68;99827.94;346440;28;1070;-70
2023/04/08 00:21:00;;;;;;;9.75;7.07;;;;;;;9.07;78.70;99834.03;345963;28;1595;-70
2023/04/08 00:21:13;;;;;;;10.23;7.07;;;;;;;9.07;78.89;99830.59;345837;28;2003;-70
2023/04/08 00:21:25;;;;;;;10.65;7.38;;;;;;;9.06;78.88;99834.94;346368;28;1104;-69
2023/04/08 00:21:37;;;;;;;9.63;7.30;;;;;;;9.05;78.90;99835.81;346612;28;1498;-70
2023/04/08 00:21:50;;;;;;;8.38;6.97;;;;;;;9.06;78.61;99837.53;345730;28;1281;-70
2023/04/08 00:22:02;;;;;;;8.60;6.80;;;;;;;9.03;78.87;99832.41;346655;28;727;-70
2023/04/08 00:22:14;;;;;;;8.38;6.57;;;;;;;9.04;78.74;99838.47;346214;28;1074;-70
2023/04/08 00:22:26;;;;;;;9.65;6.82;;;;;;;9.04;78.90;99831.53;346190;28;1078;-70
2023/04/08 00:22:38;;;;;;;9.50;6.78;;;;;;;9.02;79.00;99832.47;345903;28;1170;-70
2023/04/08 00:22:50;;;;;;;9.38;6.85;;;;;;;9.03;79.17;99835.00;345871;28;1532;-69
2023/04/08 00:23:02;;;;;;;9.15;6.97;;;;;;;9.02;79.04;99835.91;345859;28;1196;-70
2023/04/08 00:23:14;;;;;;;9.45;7.07;;;;;;;9.02;79.08;99837.66;346137;28;1221;-70
2023/04/08 00:23:26;;;;;;;9.45;7.03;;;;;;;9.01;79.06;99839.38;345670;28;1567;-70
2023/04/08 00:23:38;;;;;;;9.23;6.97;;;;;;;9.02;79.12;99838.50;346029;28;1632;-70
2023/04/08 00:23:50;;;;;;;8.77;6.70;;;;;;;9.00;78.96;99835.94;344804;28;1310;-70
2023/04/08 00:24:02;;;;;;;9.70;6.90;;;;;;;8.99;79.03;99834.25;344733;28;1837;-70
2023/04/08 00:24:15;;;;;;;9.98;7.10;;;;;;;8.98;78.95;99842.03;344668;28;1288;-70
2023/04/08 00:24:27;;;;;;;9.02;7.20;;;;;;;9.00;79.01;99832.50;345031;28;1046;-69
2023/04/08 00:24:39;;;;;;;9.27;7.28;;;;;;;8.99;78.93;99839.44;343671;28;1070;-69
2023/04/08 00:24:51;;;;;;;9.15;7.13;;;;;;;9.00;78.89;99832.50;343379;28;1242;-70
2023/04/08 00:25:08;;;;;;;9.80;7.38;;;;;;;8.98;79.16;99836.88;343505;28;1031;-70
2023/04/08 00:25:20;;;;;;;9.75;7.30;;;;;;;8.98;79.03;99839.44;342860;28;1663;-70
2023/04/08 00:25:35;;;;;;;9.40;7.22;;;;;;;8.96;79.12;99836.03;344659;28;999;-70
2023/04/08 00:25:47;;;;;;;9.13;7.15;;;;;;;8.96;79.00;99843.81;343961;28;1272;-69
2023/04/08 00:25:59;;;;;;;9.85;7.07;;;;;;;8.96;79.05;99838.63;344661;28;1255;-70
2023/04/08 00:26:11;;;;;;;9.77;6.70;;;;;;;8.93;79.25;99839.56;344819;28;1063;-69
2023/04/08 00:26:23;;;;;;;9.45;6.63;;;;;;;8.95;79.05;99831.72;344771;28;1271;-70
2023/04/08 00:26:36;;;;;;;9.07;6.97;;;;;;;8.93;78.89;99843.88;344945;28;1115;-70
2023/04/08 00:26:48;;;;;;;9.68;7.35;;;;;;;8.92;79.04;99837.00;344720;28;1055;-70
2023/04/08 00:27:01;;;;;;;9.40;7.38;;;;;;;8.94;79.21;99835.22;344943;28;1131;-70
2023/04/08 00:27:14;;;;;;;10.07;7.55;;;;;;;8.96;79.08;99833.44;344868;28;1311;-70
2023/04/08 00:27:26;;;;;;;10.32;7.47;;;;;;;8.98;78.84;99842.03;345576;28;1292;-70
2023/04/08 00:27:38;;;;;;;9.80;7.18;;;;;;;8.97;78.86;99840.31;344984;28;1090;-70
2023/04/08 00:27:50;;;;;;;9.00;7.00;;;;;;;8.98;78.81;99832.53;344845;28;1637;-70
2023/04/08 00:28:02;;;;;;;8.32;6.57;;;;;;;9.00;78.94;99835.09;345652;28;1050;-70
2023/04/08 00:28:14;;;;;;;8.98;6.70;;;;;;;9.00;78.74;99829.91;346282;28;1118;-70
2023/04/08 00:28:26;;;;;;;10.07;6.88;;;;;;;8.96;78.47;99839.47;346085;28;1071;-70
2023/04/08 00:28:38;;;;;;;10.40;7.30;;;;;;;8.96;78.88;99833.44;346270;28;1331;-70
2023/04/08 00:28:50;;;;;;;9.93;7.22;;;;;;;8.96;79.06;99836.03;346073;28;1248;-70
2023/04/08 00:29:03;;;;;;;9.43;7.00;;;;;;;8.97;78.82;99835.13;345979;28;1549;-69
2023/04/08 00:29:15;;;;;;;8.80;7.13;;;;;;;8.97;78.93;99835.13;344473;28;1213;-70
2023/04/08 00:29:27;;;;;;;9.07;7.30;;;;;;;8.97;78.86;99835.13;345133;28;1587;-70
2023/04/08 00:29:39;;;;;;;9.70;7.22;;;;;;;8.97;78.78;99836.00;346266;28;1027;-70
2023/04/08 00:29:51;;;;;;;10.25;7.30;;;;;;;8.97;78.88;99832.53;346523;28;1166;-70
2023/04/08 00:30:03;;;;;;;10.48;7.13;;;;;;;8.95;78.88;99831.72;345354;28;2393;-70
2023/04/08 00:30:15;;;;;;;10.43;7.07;;;;;;;8.97;78.69;99835.13;346436;28;1965;-69
2023/04/08 00:30:27;;;;;;;10.30;7.20;;;;;;;8.95;78.68;99831.72;347328;28;1383;-69
2023/04/08 00:30:39;;;;;;;10.80;7.28;;;;;;;8.94;78.52;99836.06;347423;28;1111;-69
2023/04/08 00:30:52;;;;;;;11.00;7.40;;;;;;;8.93;78.57;99838.69;347306;28;1387;-70
2023/04/08 00:31:04;;;;;;;9.65;7.38;;;;;;;8.92;78.40;99832.66;347236;28;1121;-69
2023/04/08 00:31:16;;;;;;;9.93;7.32;;;;;;;8.94;78.60;99830.03;345908;28;1341;-70
2023/04/08 00:31:28;;;;;;;9.47;7.13;;;;;;;8.93;78.75;99838.69;344703;28;1311;-70
2023/04/08 00:31:40;;;;;;;9.30;7.10;;;;;;;8.95;78.78;99832.59;345072;28;2331;-69
2023/04/08 00:31:53;;;;;;;9.23;7.20;;;;;;;8.95;78.63;99836.91;343564;28;1301;-70
2023/04/08 00:32:05;;;;;;;9.07;7.25;;;;;;;8.93;78.81;99834.38;342361;28;1202;-70
2023/04/08 00:32:20;;;;;;;9.55;7.22;;;;;;;8.97;78.93;99840.31;342070;28;1092;-70
2023/04/08 00:32:32;;;;;;;11.20;7.18;;;;;;;8.96;78.57;99838.63;342114;28;868;-70
2023/04/08 00:32:44;;;;;;;11.20;6.95;;;;;;;8.98;79.05;99836.88;342194;28;1296;-70
2023/04/08 00:32:57;;;;;;;11.10;7.13;;;;;;;8.93;78.65;99833.50;343430;28;1106;-70
2023/04/08 00:33:09;;;;;;;10.73;7.38;;;;;;;8.92;78.77;99842.19;343366;28;1166;-70
2023/04/08 00:33:23;;;;;;;9.77;7.45;;;;;;;8.93;78.97;99834.38;344346;28;1091;-70
2023/04/08 00:33:35;;;;;;;9.63;7.65;;;;;;;8.93;78.75;99838.69;344594;28;1063;-69
2023/04/08 00:33:48;;;;;;;9.48;7.45;;;;;;;8.91;78.77;99840.47;345967;28;1067;-69
2023/04/08 00:34:00;;;;;;;10.05;7.25;;;;;;;8.89;79.00;99842.25;346012;28;1153;-69
2023/04/08 00:34:11;;;;;;;9.60;6.93;;;;;;;8.89;78.88;99842.25;346222;28;1041;-69
2023/04/08 00:34:24;;;;;;;8.90;6.75;;;;;;;8.91;78.89;99835.28;346379;28;1069;-70
2023/04/08 00:34:36;;;;;;;10.07;6.70;;;;;;;8.92;78.53;99837.00;346203;28;1106;-70
2023/04/08 00:34:48;;;;;;;10.35;6.70;;;;;;;8.95;78.62;99836.91;345508;28;2502;-70
2023/04/08 00:35:01;;;;;;;9.63;7.10;;;;;;;8.94;78.85;99830.03;346074;28;1922;-70
2023/04/08 00:35:13;;;;;;;9.40;7.15;;;;;;;8.94;78.90;99830.03;346319;28;1094;-70
2023/04/08 00:35:25;;;;;;;10.13;7.40;;;;;;;8.94;78.78;99845.59;346046;28;1096;-70
2023/04/08 00:35:37;;;;;;;10.95;7.43;;;;;;;8.95;78.60;99842.09;345911;28;1217;-70
2023/04/08 00:35:49;;;;;;;11.10;7.55;;;;;;;8.92;78.79;99832.66;346714;28;1210;-70
2023/04/08 00:36:02;;;;;;;10.25;7.50;;;;;;;8.93;79.21;99833.50;347564;28;1311;-69
2023/04/08 00:36:14;;;;;;;8.95;7.15;;;;;;;8.95;78.72;99831.72;347632;28;1086;-70
2023/04/08 00:36:26;;;;;;;8.57;6.75;;;;;;;8.96;78.42;99833.44;347701;28;1150;-70
2023/04/08 00:36:39;;;;;;;8.25;6.70;;;;;;;8.98;78.47;99836.88;345202;28;1038;-70
2023/04/08 00:36:51;;;;;;;8.25;6.53;;;;;;;8.98;78.40;99835.13;346764;28;1266;-70
2023/04/08 00:37:03;;;;;;;9.55;6.93;;;;;;;8.97;78.40;99832.53;346403;28;994;-70
2023/04/08 00:37:15;;;;;;;10.63;7.32;;;;;;;8.96;78.38;99838.63;346737;28;736;-70
2023/04/08 00:37:30;;;;;;;10.82;7.25;;;;;;;8.94;78.64;99835.22;346371;28;1222;-70
2023/04/08 00:37:42;;;;;;;9.57;6.90;;;;;;;8.95;78.54;99831.72;345957;28;975;-70
2023/04/08 00:37:54;;;;;;;9.07;7.55;;;;;;;8.94;78.51;99837.81;346160;28;1204;-70
2023/04/08 00:38:07;;;;;;;10.38;7.72;;;;;;;8.94;78.70;99835.22;346126;28;1285;-70
2023/04/08 00:38:19;;;;;;;10.15;7.38;;;;;;;8.92;78.57;99834.41;346360;28;1187;-70
2023/04/08 00:38:31;;;;;;;9.32;7.15;;;;;;;8.91;78.64;99835.28;346250;28;1478;-70
2023/04/08 00:38:43;;;;;;;9.13;7.10;;;;;;;8.90;78.49;99842.22;345135;28;963;-70
2023/04/08 00:38:55;;;;;;;10.43;7.32;;;;;;;8.91;78.48;99843.06;344897;28;1231;-70
2023/04/08 00:39:07;;;;;;;10.48;7.45;;;;;;;8.92;78.73;99837.00;344948;28;1297;-70
2023/04/08 00:39:19;;;;;;;9.65;7.00;;;;;;;8.93;78.39;99838.69;344712;28;1045;-70
2023/04/08 00:39:31;;;;;;;8.38;6.43;;;;;;;8.95;78.50;99842.09;345212;28;902;-70
2023/04/08 00:39:44;;;;;;;9.23;6.32;;;;;;;8.94;78.28;99830.88;344684;28;1376;-70
2023/04/08 00:39:56;;;;;;;9.38;6.47;;;;;;;8.97;78.32;99841.19;346326;28;758;-70
2023/04/08 00:40:08;;;;;;;8.50;6.55;;;;;;;8.97;78.11;99833.41;346166;28;1079;-70
2023/04/08 00:40:20;;;;;;;9.07;6.90;;;;;;;8.98;78.21;99831.69;345865;28;1545;-70
2023/04/08 00:40:34;;;;;;;9.20;6.95;;;;;;;8.97;78.05;99835.13;344874;28;1078;-70
2023/04/08 00:40:46;;;;;;;8.57;6.70;;;;;;;8.98;77.98;99832.53;344443;28;1219;-69
2023/04/08 00:40:58;;;;;;;8.65;6.82;;;;;;;8.96;78.10;99833.44;345916;28;1546;-69
2023/04/08 00:41:10;;;;;;;9.15;6.95;;;;;;;8.96;78.09;99833.44;344929;28;1055;-69
2023/04/08 00:41:22;;;;;;;9.20;7.10;;;;;;;8.95;78.20;99831.72;344483;28;1981;-70
2023/04/08 00:41:35;;;;;;;9.40;6.90;;;;;;;8.94;78.38;99841.25;344934;28;1347;-69
2023/04/08 00:41:46;;;;;;;9.63;7.05;;;;;;;8.94;78.29;99835.22;344879;28;1373;-69
2023/04/08 00:42:00;;;;;;;8.98;6.80;;;;;;;8.94;78.25;99840.41;342897;28;1589;-70
2023/04/08 00:42:12;;;;;;;9.70;7.00;;;;;;;8.90;78.17;99843.97;342836;28;1988;-69
2023/04/08 00:42:24;;;;;;;9.57;7.00;;;;;;;8.86;78.52;99832.81;343990;28;729;-70
2023/04/08 00:42:36;;;;;;;8.80;6.85;;;;;;;8.88;78.53;99840.56;343607;28;1254;-69
2023/04/08 00:42:48;;;;;;;8.98;6.90;;;;;;;8.89;78.46;99832.72;344106;28;1382;-70
2023/04/08 00:43:00;;;;;;;10.68;7.35;;;;;;;8.90;78.45;99838.78;344202;28;1562;-69
2023/04/08 00:43:12;;;;;;;10.70;7.38;;;;;;;8.89;77.71;99843.09;343802;28;1019;-69
2023/04/08 00:43:24;;;;;;;11.27;7.30;;;;;;;8.88;78.11;99837.97;344763;28;1128;-70
2023/04/08 00:43:36;;;;;;;11.00;7.10;;;;;;;8.86;77.77;99842.31;344824;28;1023;-69
2023/04/08 00:43:48;;;;;;;10.23;6.88;;;;;;;8.85;77.96;99835.41;344205;28;1345;-69
2023/04/08 00:44:00;;;;;;;9.02;6.68;;;;;;;8.87;78.00;99838.84;344934;28;1135;-68
2023/04/08 00:44:12;;;;;;;10.38;6.88;;;;;;;8.89;78.09;99842.25;344245;28;1666;-69
2023/04/08 00:44:24;;;;;;;11.30;7.00;;;;;;;8.89;78.22;99837.06;344751;28;1181;-69
2023/04/08 00:44:36;;;;;;;9.70;6.88;;;;;;;8.90;78.19;99843.97;344740;28;1278;-70
2023/04/08 00:44:48;;;;;;;8.93;6.75;;;;;;;8.88;78.32;99830.19;344391;28;1664;-69
2023/04/08 00:45:00;;;;;;;9.27;6.90;;;;;;;8.91;78.40;99843.06;344637;28;1582;-69
2023/04/08 00:45:12;;;;;;;9.23;6.95;;;;;;;8.94;78.53;99840.41;344247;28;1715;-69
2023/04/08 00:45:24;;;;;;;9.23;6.82;;;;;;;8.95;77.86;99831.72;344837;28;1039;-70
2023/04/08 00:45:36;;;;;;;9.38;7.07;;;;;;;8.92;78.26;99837.00;343305;28;2473;-69
2023/04/08 00:45:49;;;;;;;9.02;6.90;;;;;;;8.90;78.27;99849.16;343569;28;1899;-70
2023/04/08 00:46:01;;;;;;;8.32;6.60;;;;;;;8.86;78.06;99840.56;344517;28;1549;-69
2023/04/08 00:46:14;;;;;;;9.15;6.95;;;;;;;8.87;78.45;99838.84;344654;28;1744;-69
2023/04/08 00:46:26;;;;;;;9.60;7.10;;;;;;;8.88;78.80;99840.56;344975;28;1182;-69
2023/04/08 00:46:39;;;;;;;10.32;7.20;;;;;;;8.87;78.80;99841.44;346290;28;1168;-69
2023/04/08 00:46:51;;;;;;;9.75;6.88;;;;;;;8.86;78.87;99839.75;346145;28;1352;-69
2023/04/08 00:47:03;;;;;;;8.65;6.57;;;;;;;8.88;78.79;99843.16;346065;28;1106;-69
2023/04/08 00:47:15;;;;;;;9.07;6.72;;;;;;;8.91;78.63;99835.28;345218;28;1354;-69
2023/04/08 00:47:27;;;;;;;9.18;6.75;;;;;;;8.92;78.45;99831.81;345459;28;1839;-69
2023/04/08 00:47:40;;;;;;;9.40;6.78;;;;;;;8.94;78.35;99837.81;345896;28;1051;-69
2023/04/08 00:47:52;;;;;;;9.82;7.10;;;;;;;8.96;78.59;99838.63;345923;28;1268;-69
2023/04/08 00:48:04;;;;;;;11.38;7.32;;;;;;;8.96;78.58;99842.06;346387;28;1069;-69
2023/04/08 00:48:16;;;;;;;11.35;7.22;;;;;;;8.97;78.55;99835.13;346379;28;1112;-69
2023/04/08 00:48:28;;;;;;;10.65;7.22;;;;;;;8.95;78.50;99842.09;345670;28;1716;-69
2023/04/08 00:48:40;;;;;;;10.45;7.13;;;;;;;8.95;78.57;99837.78;346198;28;1182;-69
2023/04/08 00:48:53;;;;;;;9.13;6.57;;;;;;;8.95;78.68;99836.91;345183;28;1416;-69
2023/04/08 00:49:06;;;;;;;9.40;6.85;;;;;;;8.97;78.88;99837.72;344967;28;1085;-69
2023/04/08 00:49:18;;;;;;;9.43;6.90;;;;;;;8.96;78.68;99834.28;344473;28;1223;-69
2023/04/08 00:49:30;;;;;;;9.32;7.07;;;;;;;8.98;78.55;99842.03;344772;28;1793;-68
2023/04/08 00:49:44;;;;;;;8.98;7.00;;;;;;;8.96;78.19;99830.84;344760;28;1071;-69
2023/04/08 00:49:56;;;;;;;9.45;7.15;;;;;;;8.97;78.35;99835.13;344808;28;1023;-69
2023/04/08 00:50:09;;;;;;;10.27;7.03;;;;;;;8.98;78.83;99840.28;344795;28;1030;-69
2023/04/08 00:50:21;;;;;;;11.18;7.10;;;;;;;8.98;78.98;99836.88;345887;28;1719;-70
2023/04/08 00:50:33;;;;;;;10.68;7.05;;;;;;;8.98;79.51;99836.88;344343;28;1665;-69
2023/04/08 00:50:46;;;;;;;9.82;6.95;;;;;;;9.02;78.91;99832.47;345742;28;1517;-69
2023/04/08 00:50:58;;;;;;;9.43;7.13;;;;;;;9.04;78.96;99836.72;344802;28;1059;-69
2023/04/08 00:51:11;;;;;;;9.90;7.57;;;;;;;9.05;78.94;99838.41;345722;28;1123;-70
2023/04/08 00:51:23;;;;;;;9.90;7.65;;;;;;;9.06;78.85;99834.94;346001;28;1265;-69
2023/04/08 00:51:35;;;;;;;9.93;7.60;;;;;;;9.06;78.84;99840.13;346037;28;1362;-69
2023/04/08 00:51:47;;;;;;;9.70;7.28;;;;;;;9.10;78.19;99840.91;344203;28;1807;-70
2023/04/08 00:51:59;;;;;;;9.18;6.93;;;;;;;9.11;78.43;99838.25;344664;28;1166;-69
2023/04/08 00:52:12;;;;;;;9.30;6.95;;;;;;;9.13;78.59;99836.47;343467;28;1279;-69
2023/04/08 00:52:24;;;;;;;9.80;7.13;;;;;;;9.14;78.59;99833.00;343308;28;1782;-69
2023/04/08 00:52:48;;;;;;;11.73;7.25;;;;;;;9.13;78.80;99836.47;343510;28;1047;-68
2023/04/08 00:53:00;;;;;;;12.80;7.30;;;;;;;9.16;78.57;99841.63;342543;28;839;-69
2023/04/08 00:53:17;;;;;;;9.85;7.28;;;;;;;9.15;78.52;99845.06;342070;28;1157;-69
2023/04/08 00:53:30;;;;;;;9.85;7.00;;;;;;;9.16;78.87;99840.75;343332;28;1088;-69
2023/04/08 00:53:42;;;;;;;9.52;7.05;;;;;;;9.16;78.77;99839.03;343363;28;1548;-69
2023/04/08 00:53:54;;;;;;;9.40;7.03;;;;;;;9.16;78.89;99836.41;345199;28;1577;-69
2023/04/08 00:54:06;;;;;;;10.23;7.30;;;;;;;9.16;78.78;99844.19;346171;28;1289;-69
2023/04/08 00:54:18;;;;;;;10.32;7.10;;;;;;;9.14;78.70;99838.19;346778;28;1862;-68
2023/04/08 00:54:30;;;;;;;10.88;6.90;;;;;;;9.14;78.77;99837.34;345478;28;1679;-68
2023/04/08 00:54:42;;;;;;;11.13;6.93;;;;;;;9.16;78.63;99841.63;345839;28;1063;-68
2023/04/08 00:54:54;;;;;;;10.57;7.00;;;;;;;9.15;78.29;99842.47;343637;28;1758;-69
2023/04/08 00:55:06;;;;;;;10.32;7.32;;;;;;;9.16;78.55;99836.41;344832;28;1011;-69
2023/04/08 00:55:18;;;;;;;10.27;7.50;;;;;;;9.16;78.49;99836.41;344573;28;1276;-68
2023/04/08 00:55:30;;;;;;;10.18;7.55;;;;;;;9.15;78.58;99845.06;345163;28;885;-68
2023/04/08 00:55:42;;;;;;;8.65;7.05;;;;;;;9.14;78.19;99843.38;344654;28;1102;-68
2023/04/08 00:55:54;;;;;;;8.65;7.00;;;;;;;9.15;78.63;99845.06;343513;28;1023;-68
2023/04/08 00:56:06;;;;;;;8.90;6.95;;;;;;;9.16;78.33;99836.41;344420;28;1055;-68
2023/04/08 00:56:18;;;;;;;10.10;6.63;;;;;;;9.19;78.41;99841.56;344817;28;1070;-69
2023/04/08 00:56:31;;;;;;;10.35;6.40;;;;;;;9.20;78.15;99838.06;344694;28;1063;-69
2023/04/08 00:56:44;;;;;;;9.30;6.78;;;;;;;9.23;78.20;99837.13;346349;28;1316;-68
2023/04/08 00:56:58;;;;;;;9.15;6.75;;;;;;;9.25;78.30;99840.53;345349;28;1483;-69
2023/04/08 00:57:11;;;;;;;9.07;6.85;;;;;;;9.24;78.20;99838.00;346068;28;1073;-69
2023/04/08 00:57:23;;;;;;;8.70;6.85;;;;;;;9.25;78.16;99842.28;345575;28;1771;-69
2023/04/08 00:57:35;;;;;;;9.27;6.88;;;;;;;9.25;77.97;99840.53;346107;28;1047;-70
2023/04/08 00:57:50;;;;;;;10.32;7.18;;;;;;;9.25;77.99;99837.09;345542;28;1760;-69
2023/04/08 00:58:02;;;;;;;10.65;7.00;;;;;;;9.27;77.81;99840.50;345576;28;1913;-69
2023/04/08 00:58:17;;;;;;;10.32;7.25;;;;;;;9.22;77.89;99839.78;346090;28;1036;-69
2023/04/08 00:58:29;;;;;;;10.07;7.35;;;;;;;9.18;77.86;99837.25;345982;28;1197;-69
2023/04/08 00:58:41;;;;;;;9.70;7.28;;;;;;;9.20;77.97;99843.25;346105;28;1043;-69
2023/04/08 00:58:54;;;;;;;9.90;7.47;;;;;;;9.19;77.84;99841.56;345650;28;1557;-69
2023/04/08 00:59:06;;;;;;;9.65;7.20;;;;;;;9.20;77.82;99843.25;346211;28;1128;-69
2023/04/08 00:59:18;;;;;;;9.73;7.20;;;;;;;9.17;77.86;99843.31;345978;28;2451;-69
2023/04/08 00:59:31;;;;;;;9.75;7.20;;;;;;;9.13;77.91;99844.25;346168;28;1929;-70
2023/04/08 00:59:43;;;;;;;10.20;7.22;;;;;;;9.14;78.13;99838.19;345676;28;1418;-69
2023/04/08 00:59:55;;;;;;;9.88;7.28;;;;;;;9.15;77.91;99845.06;344733;28;1764;-69
2023/04/08 01:00:08;;;;;;;9.65;7.15;;;;;;;9.14;78.05;99843.38;344875;28;1008;-69
2023/04/08 01:00:20;;;;;;;9.15;7.03;;;;;;;9.16;78.25;99846.78;343462;28;1699;-69
2023/04/08 01:00:34;;;;;;;8.63;6.90;;;;;;;9.15;78.38;99845.06;342334;28;1137;-69